sensor_id;sensor_type;location;lat;lon;timestamp;pressure;altitude;pressure_sealevel;temperature;humidity
64192;BME280;50497;50.720;-2.084;2022-10-18T00:02:16;102566.59;;;7.77;100.00
64192;BME280;50497;50.720;-2.084;2022-10-18T00:04:44;102556.81;;;7.78;100.00
64192;BME280;50497;50.720;-2.084;2022-10-18T00:07:09;102563.94;;;7.79;100.00
64192;BME280;50497;50.720;-2.084;2022-10-18T00:09:35;102575.47;;;7.78;100.00
64192;BME280;50497;50.720;-2.084;2022-10-18T00:12:00;102573.78;;;7.60;100.00
64192;BME280;50497;50.720;-2.084;2022-10-18T00:14:26;102580.91;;;7.59;100.00
64192;BME280;50497;50.720;-2.084;2022-10-18T00:16:51;102572.16;;;7.37;100.00
64192;BME280;50497;50.720;-2.084;2022-10-18T00:19:17;102573.03;;;7.38;100.00
64192;BME280;50497;50.720;-2.084;2022-10-18T00:21:42;102572.19;;;7.30;100.00
64192;BME280;50497;50.720;-2.084;2022-10-18T00:24:07;102574.84;;;7.27;100.00
64192;BME280;50497;50.720;-2.084;2022-10-18T00:26:33;102575.78;;;7.22;100.00
64192;BME280;50497;50.720;-2.084;2022-10-18T00:29:01;102580.19;;;7.24;100.00
64192;BME280;50497;50.720;-2.084;2022-10-18T00:31:29;102574.00;;;7.21;100.00
64192;BME280;50497;50.720;-2.084;2022-10-18T00:34:00;102582.81;;;7.30;100.00
64192;BME280;50497;50.720;-2.084;2022-10-18T00:36:27;102574.84;;;7.30;100.00
64192;BME280;50497;50.720;-2.084;2022-10-18T00:38:53;102551.81;;;7.22;100.00
64192;BME280;50497;50.720;-2.084;2022-10-18T00:41:24;102568.72;;;7.05;100.00
64192;BME280;50497;50.720;-2.084;2022-10-18T00:44:58;102568.69;;;7.14;100.00
64192;BME280;50497;50.720;-2.084;2022-10-18T00:46:55;102566.00;;;7.21;100.00
64192;BME280;50497;50.720;-2.084;2022-10-18T00:49:30;102572.25;;;7.20;100.00
64192;BME280;50497;50.720;-2.084;2022-10-18T00:54:23;102555.44;;;6.94;100.00
64192;BME280;50497;50.720;-2.084;2022-10-18T00:56:49;102571.41;;;6.97;100.00
64192;BME280;50497;50.720;-2.084;2022-10-18T00:59:16;102576.72;;;7.05;100.00
64192;BME280;50497;50.720;-2.084;2022-10-18T01:01:43;102578.50;;;7.06;100.00
64192;BME280;50497;50.720;-2.084;2022-10-18T01:04:10;102574.97;;;6.90;100.00
64192;BME280;50497;50.720;-2.084;2022-10-18T01:14:57;102597.19;;;6.79;100.00
64192;BME280;50497;50.720;-2.084;2022-10-18T01:17:57;102594.53;;;6.72;100.00
64192;BME280;50497;50.720;-2.084;2022-10-18T01:23:12;102606.94;;;6.71;100.00
64192;BME280;50497;50.720;-2.084;2022-10-18T01:31:14;102596.31;;;6.60;100.00
64192;BME280;50497;50.720;-2.084;2022-10-18T01:33:55;102613.16;;;6.65;100.00
64192;BME280;50497;50.720;-2.084;2022-10-18T01:36:26;102604.31;;;6.56;100.00
64192;BME280;50497;50.720;-2.084;2022-10-18T01:38:56;102626.47;;;6.59;100.00
64192;BME280;50497;50.720;-2.084;2022-10-18T01:41:24;102602.53;;;6.47;100.00
64192;BME280;50497;50.720;-2.084;2022-10-18T01:43:57;102629.09;;;6.64;100.00
64192;BME280;50497;50.720;-2.084;2022-10-18T01:46:25;102633.53;;;6.59;100.00
64192;BME280;50497;50.720;-2.084;2022-10-18T01:48:54;102615.81;;;6.45;100.00
64192;BME280;50497;50.720;-2.084;2022-10-18T01:51:27;102614.06;;;6.44;100.00
64192;BME280;50497;50.720;-2.084;2022-10-18T01:53:53;102607.88;;;6.38;100.00
64192;BME280;50497;50.720;-2.084;2022-10-18T01:56:51;102610.53;;;6.41;100.00
64192;BME280;50497;50.720;-2.084;2022-10-18T01:59:14;102629.13;;;6.55;100.00
64192;BME280;50497;50.720;-2.084;2022-10-18T02:05:04;102624.69;;;6.41;100.00
64192;BME280;50497;50.720;-2.084;2022-10-18T02:07:41;102631.78;;;6.38;100.00
64192;BME280;50497;50.720;-2.084;2022-10-18T02:12:36;102634.41;;;6.25;100.00
64192;BME280;50497;50.720;-2.084;2022-10-18T02:15:06;102633.53;;;6.17;100.00
64192;BME280;50497;50.720;-2.084;2022-10-18T02:17:34;102622.91;;;6.13;100.00
64192;BME280;50497;50.720;-2.084;2022-10-18T02:20:03;102620.25;;;6.09;100.00
64192;BME280;50497;50.720;-2.084;2022-10-18T02:22:31;102638.84;;;6.13;100.00
64192;BME280;50497;50.720;-2.084;2022-10-18T02:24:58;102638.84;;;6.09;100.00
64192;BME280;50497;50.720;-2.084;2022-10-18T02:27:27;102639.72;;;6.07;100.00
64192;BME280;50497;50.720;-2.084;2022-10-18T02:29:52;102630.84;;;5.99;100.00
64192;BME280;50497;50.720;-2.084;2022-10-18T02:32:34;102655.69;;;6.15;100.00
64192;BME280;50497;50.720;-2.084;2022-10-18T02:35:07;102633.50;;;6.00;100.00
64192;BME280;50497;50.720;-2.084;2022-10-18T02:37:37;102645.94;;;6.17;100.00
64192;BME280;50497;50.720;-2.084;2022-10-18T02:40:05;102650.38;;;6.12;100.00
64192;BME280;50497;50.720;-2.084;2022-10-18T02:42:42;102638.84;;;6.13;100.00
64192;BME280;50497;50.720;-2.084;2022-10-18T02:45:08;102645.06;;;6.16;100.00
64192;BME280;50497;50.720;-2.084;2022-10-18T02:47:34;102642.41;;;6.18;100.00
64192;BME280;50497;50.720;-2.084;2022-10-18T02:50:00;102638.00;;;6.24;100.00
64192;BME280;50497;50.720;-2.084;2022-10-18T02:52:25;102633.53;;;6.22;100.00
64192;BME280;50497;50.720;-2.084;2022-10-18T02:54:50;102628.25;;;6.28;100.00
64192;BME280;50497;50.720;-2.084;2022-10-18T02:57:16;102640.63;;;6.37;100.00
64192;BME280;50497;50.720;-2.084;2022-10-18T02:59:42;102622.03;;;6.26;100.00
64192;BME280;50497;50.720;-2.084;2022-10-18T03:02:07;102608.75;;;6.24;100.00
64192;BME280;50497;50.720;-2.084;2022-10-18T03:04:32;102617.59;;;6.25;100.00
64192;BME280;50497;50.720;-2.084;2022-10-18T03:06:58;102604.31;;;6.23;100.00
64192;BME280;50497;50.720;-2.084;2022-10-18T03:09:23;102614.94;;;6.25;100.00
64192;BME280;50497;50.720;-2.084;2022-10-18T03:11:48;102613.16;;;6.30;100.00
64192;BME280;50497;50.720;-2.084;2022-10-18T03:14:14;102631.78;;;6.36;100.00
64192;BME280;50497;50.720;-2.084;2022-10-18T03:16:40;102632.66;;;6.38;100.00
64192;BME280;50497;50.720;-2.084;2022-10-18T03:19:05;102629.09;;;6.42;100.00
64192;BME280;50497;50.720;-2.084;2022-10-18T03:21:31;102606.97;;;6.28;100.00
64192;BME280;50497;50.720;-2.084;2022-10-18T03:23:56;102618.47;;;6.32;100.00
64192;BME280;50497;50.720;-2.084;2022-10-18T03:26:24;102635.34;;;6.44;100.00
64192;BME280;50497;50.720;-2.084;2022-10-18T03:28:49;102623.81;;;6.33;100.00
64192;BME280;50497;50.720;-2.084;2022-10-18T03:31:14;102635.31;;;6.32;100.00
64192;BME280;50497;50.720;-2.084;2022-10-18T03:33:40;102639.78;;;6.41;100.00
64192;BME280;50497;50.720;-2.084;2022-10-18T03:36:05;102635.31;;;6.38;100.00
64192;BME280;50497;50.720;-2.084;2022-10-18T03:38:31;102645.94;;;6.35;100.00
64192;BME280;50497;50.720;-2.084;2022-10-18T03:40:56;102640.63;;;6.29;100.00
64192;BME280;50497;50.720;-2.084;2022-10-18T03:43:22;102634.41;;;6.08;100.00
64192;BME280;50497;50.720;-2.084;2022-10-18T03:45:47;102623.78;;;6.07;100.00
64192;BME280;50497;50.720;-2.084;2022-10-18T03:48:13;102645.94;;;6.21;100.00
64192;BME280;50497;50.720;-2.084;2022-10-18T03:50:39;102646.81;;;6.16;100.00
64192;BME280;50497;50.720;-2.084;2022-10-18T03:53:04;102648.59;;;6.18;100.00
64192;BME280;50497;50.720;-2.084;2022-10-18T03:55:30;102645.91;;;6.07;100.00
64192;BME280;50497;50.720;-2.084;2022-10-18T03:57:56;102659.22;;;6.18;100.00
64192;BME280;50497;50.720;-2.084;2022-10-18T04:00:22;102652.13;;;6.19;100.00
64192;BME280;50497;50.720;-2.084;2022-10-18T04:02:47;102658.34;;;6.18;100.00
64192;BME280;50497;50.720;-2.084;2022-10-18T04:05:13;102642.38;;;6.04;100.00
64192;BME280;50497;50.720;-2.084;2022-10-18T04:07:38;102661.91;;;6.23;100.00
64192;BME280;50497;50.720;-2.084;2022-10-18T04:10:04;102665.44;;;6.19;100.00
64192;BME280;50497;50.720;-2.084;2022-10-18T04:12:29;102646.81;;;6.17;100.00
64192;BME280;50497;50.720;-2.084;2022-10-18T04:14:55;102649.50;;;6.28;100.00
64192;BME280;50497;50.720;-2.084;2022-10-18T04:17:21;102653.91;;;6.31;100.00
64192;BME280;50497;50.720;-2.084;2022-10-18T04:19:46;102652.16;;;6.28;100.00
64192;BME280;50497;50.720;-2.084;2022-10-18T04:22:11;102644.16;;;6.19;100.00
64192;BME280;50497;50.720;-2.084;2022-10-18T04:24:37;102640.63;;;6.23;100.00
64192;BME280;50497;50.720;-2.084;2022-10-18T04:27:04;102661.91;;;6.32;100.00
64192;BME280;50497;50.720;-2.084;2022-10-18T04:29:30;102658.38;;;6.38;100.00
64192;BME280;50497;50.720;-2.084;2022-10-18T04:31:55;102664.56;;;6.41;100.00
64192;BME280;50497;50.720;-2.084;2022-10-18T04:34:20;102668.13;;;6.42;100.00
64192;BME280;50497;50.720;-2.084;2022-10-18T04:36:46;102665.47;;;6.48;100.00
64192;BME280;50497;50.720;-2.084;2022-10-18T04:39:11;102646.84;;;6.23;100.00
64192;BME280;50497;50.720;-2.084;2022-10-18T04:41:37;102671.66;;;6.47;100.00
64192;BME280;50497;50.720;-2.084;2022-10-18T04:44:02;102671.66;;;6.45;100.00
64192;BME280;50497;50.720;-2.084;2022-10-18T04:46:27;102669.91;;;6.41;100.00
64192;BME280;50497;50.720;-2.084;2022-10-18T04:48:53;102677.88;;;6.41;100.00
64192;BME280;50497;50.720;-2.084;2022-10-18T04:51:19;102661.91;;;6.41;100.00
64192;BME280;50497;50.720;-2.084;2022-10-18T04:53:44;102669.91;;;6.55;100.00
64192;BME280;50497;50.720;-2.084;2022-10-18T04:56:09;102655.69;;;6.47;100.00
64192;BME280;50497;50.720;-2.084;2022-10-18T04:58:35;102676.09;;;6.50;100.00
64192;BME280;50497;50.720;-2.084;2022-10-18T05:01:04;102673.44;;;6.63;100.00
64192;BME280;50497;50.720;-2.084;2022-10-18T05:03:29;102669.00;;;6.67;100.00
64192;BME280;50497;50.720;-2.084;2022-10-18T05:05:55;102686.72;;;6.80;100.00
64192;BME280;50497;50.720;-2.084;2022-10-18T05:08:20;102670.78;;;6.65;100.00
64192;BME280;50497;50.720;-2.084;2022-10-18T05:10:46;102670.78;;;6.76;100.00
64192;BME280;50497;50.720;-2.084;2022-10-18T05:13:11;102684.06;;;6.85;100.00
64192;BME280;50497;50.720;-2.084;2022-10-18T05:15:36;102684.97;;;6.95;100.00
64192;BME280;50497;50.720;-2.084;2022-10-18T05:18:02;102667.25;;;6.88;100.00
64192;BME280;50497;50.720;-2.084;2022-10-18T05:20:27;102685.84;;;7.00;100.00
64192;BME280;50497;50.720;-2.084;2022-10-18T05:22:53;102674.31;;;7.01;100.00
64192;BME280;50497;50.720;-2.084;2022-10-18T05:25:18;102690.28;;;6.95;100.00
64192;BME280;50497;50.720;-2.084;2022-10-18T05:27:44;102677.84;;;7.00;100.00
64192;BME280;50497;50.720;-2.084;2022-10-18T05:30:09;102686.72;;;7.02;100.00
64192;BME280;50497;50.720;-2.084;2022-10-18T05:32:34;102679.63;;;6.92;100.00
64192;BME280;50497;50.720;-2.084;2022-10-18T05:35:00;102680.50;;;6.95;100.00
64192;BME280;50497;50.720;-2.084;2022-10-18T05:37:25;102676.97;;;6.95;100.00
64192;BME280;50497;50.720;-2.084;2022-10-18T05:39:51;102679.63;;;6.98;100.00
64192;BME280;50497;50.720;-2.084;2022-10-18T05:42:17;102689.38;;;7.07;100.00
64192;BME280;50497;50.720;-2.084;2022-10-18T05:44:42;102689.41;;;6.87;100.00
64192;BME280;50497;50.720;-2.084;2022-10-18T05:47:07;102692.94;;;6.90;100.00
64192;BME280;50497;50.720;-2.084;2022-10-18T05:49:33;102684.09;;;6.94;100.00
64192;BME280;50497;50.720;-2.084;2022-10-18T05:51:58;102697.38;;;6.99;100.00
64192;BME280;50497;50.720;-2.084;2022-10-18T05:54:24;102700.94;;;6.93;100.00
64192;BME280;50497;50.720;-2.084;2022-10-18T05:56:49;102684.97;;;6.81;100.00
64192;BME280;50497;50.720;-2.084;2022-10-18T05:59:15;102698.25;;;6.89;100.00
64192;BME280;50497;50.720;-2.084;2022-10-18T06:01:41;102696.47;;;6.95;100.00
64192;BME280;50497;50.720;-2.084;2022-10-18T06:04:07;102687.63;;;6.98;100.00
64192;BME280;50497;50.720;-2.084;2022-10-18T06:06:34;102674.31;;;6.89;100.00
64192;BME280;50497;50.720;-2.084;2022-10-18T06:09:00;102692.94;;;7.01;100.00
64192;BME280;50497;50.720;-2.084;2022-10-18T06:11:28;102700.94;;;6.98;100.00
64192;BME280;50497;50.720;-2.084;2022-10-18T06:13:53;102704.47;;;7.00;100.00
64192;BME280;50497;50.720;-2.084;2022-10-18T06:16:20;102695.59;;;7.04;100.00
64192;BME280;50497;50.720;-2.084;2022-10-18T06:18:47;102720.44;;;6.94;100.00
64192;BME280;50497;50.720;-2.084;2022-10-18T06:21:13;102705.38;;;6.85;100.00
64192;BME280;50497;50.720;-2.084;2022-10-18T06:23:38;102724.00;;;6.90;100.00
64192;BME280;50497;50.720;-2.084;2022-10-18T06:26:06;102708.91;;;6.73;100.00
64192;BME280;50497;50.720;-2.084;2022-10-18T06:28:34;102717.78;;;6.66;100.00
64192;BME280;50497;50.720;-2.084;2022-10-18T06:31:00;102718.63;;;6.43;100.00
64192;BME280;50497;50.720;-2.084;2022-10-18T06:33:25;102700.88;;;6.18;100.00
64192;BME280;50497;50.720;-2.084;2022-10-18T06:36:03;102706.16;;;6.12;100.00
64192;BME280;50497;50.720;-2.084;2022-10-18T06:38:29;102695.47;;;5.95;100.00
64192;BME280;50497;50.720;-2.084;2022-10-18T06:40:56;102709.69;;;6.10;100.00
64192;BME280;50497;50.720;-2.084;2022-10-18T06:43:22;102709.69;;;6.09;100.00
64192;BME280;50497;50.720;-2.084;2022-10-18T06:45:48;102717.69;;;6.12;100.00
64192;BME280;50497;50.720;-2.084;2022-10-18T06:48:15;102702.59;;;6.00;100.00
64192;BME280;50497;50.720;-2.084;2022-10-18T06:50:41;102716.81;;;6.12;100.00
64192;BME280;50497;50.720;-2.084;2022-10-18T06:53:06;102704.38;;;6.01;100.00
64192;BME280;50497;50.720;-2.084;2022-10-18T06:55:33;102716.78;;;6.08;100.00
64192;BME280;50497;50.720;-2.084;2022-10-18T06:58:00;102716.78;;;6.05;100.00
64192;BME280;50497;50.720;-2.084;2022-10-18T07:00:25;102710.59;;;6.19;100.00
64192;BME280;50497;50.720;-2.084;2022-10-18T07:02:51;102713.28;;;6.25;100.00
64192;BME280;50497;50.720;-2.084;2022-10-18T07:05:16;102721.28;;;6.29;100.00
64192;BME280;50497;50.720;-2.084;2022-10-18T07:07:43;102718.63;;;6.31;100.00
64192;BME280;50497;50.720;-2.084;2022-10-18T07:10:09;102735.47;;;6.47;100.00
64192;BME280;50497;50.720;-2.084;2022-10-18T07:12:34;102728.38;;;6.52;100.00
64192;BME280;50497;50.720;-2.084;2022-10-18T07:14:59;102735.50;;;6.53;100.00
64192;BME280;50497;50.720;-2.084;2022-10-18T07:17:26;102720.41;;;6.54;100.00
64192;BME280;50497;50.720;-2.084;2022-10-18T07:19:51;102735.50;;;6.58;100.00
64192;BME280;50497;50.720;-2.084;2022-10-18T07:22:17;102731.06;;;6.55;100.00
64192;BME280;50497;50.720;-2.084;2022-10-18T07:24:42;102738.16;;;6.56;100.00
64192;BME280;50497;50.720;-2.084;2022-10-18T07:27:08;102742.59;;;6.57;100.00
64192;BME280;50497;50.720;-2.084;2022-10-18T07:29:34;102739.94;;;6.60;100.00
64192;BME280;50497;50.720;-2.084;2022-10-18T07:32:02;102742.59;;;6.60;100.00
64192;BME280;50497;50.720;-2.084;2022-10-18T07:34:28;102731.06;;;6.58;100.00
64192;BME280;50497;50.720;-2.084;2022-10-18T07:36:53;102750.59;;;6.74;100.00
64192;BME280;50497;50.720;-2.084;2022-10-18T07:39:20;102750.59;;;6.74;100.00
64192;BME280;50497;50.720;-2.084;2022-10-18T07:41:45;102739.06;;;6.74;100.00
64192;BME280;50497;50.720;-2.084;2022-10-18T07:44:11;102744.38;;;6.74;100.00
64192;BME280;50497;50.720;-2.084;2022-10-18T07:46:36;102750.63;;;6.77;100.00
64192;BME280;50497;50.720;-2.084;2022-10-18T07:49:02;102760.38;;;6.91;100.00
64192;BME280;50497;50.720;-2.084;2022-10-18T07:51:27;102733.75;;;6.80;100.00
64192;BME280;50497;50.720;-2.084;2022-10-18T07:53:55;102746.16;;;6.99;100.00
64192;BME280;50497;50.720;-2.084;2022-10-18T07:56:20;102744.38;;;7.01;100.00
64192;BME280;50497;50.720;-2.084;2022-10-18T07:58:48;102757.72;;;7.09;100.00
64192;BME280;50497;50.720;-2.084;2022-10-18T08:01:15;102752.34;;;7.15;100.00
64192;BME280;50497;50.720;-2.084;2022-10-18T08:03:41;102750.59;;;7.20;100.00
64192;BME280;50497;50.720;-2.084;2022-10-18T08:06:08;102749.69;;;7.23;100.00
64192;BME280;50497;50.720;-2.084;2022-10-18T08:08:35;102751.44;;;7.33;100.00
64192;BME280;50497;50.720;-2.084;2022-10-18T08:11:02;102773.63;;;7.40;100.00
64192;BME280;50497;50.720;-2.084;2022-10-18T08:13:32;102767.38;;;7.55;100.00
64192;BME280;50497;50.720;-2.084;2022-10-18T08:16:01;102781.53;;;7.85;100.00
64192;BME280;50497;50.720;-2.084;2022-10-18T08:18:27;102776.06;;;8.17;100.00
64192;BME280;50497;50.720;-2.084;2022-10-18T08:20:53;102778.69;;;8.23;100.00
64192;BME280;50497;50.720;-2.084;2022-10-18T08:23:18;102791.06;;;8.37;100.00
64192;BME280;50497;50.720;-2.084;2022-10-18T08:25:43;102768.00;;;8.32;100.00
64192;BME280;50497;50.720;-2.084;2022-10-18T08:28:10;102790.19;;;8.44;100.00
64192;BME280;50497;50.720;-2.084;2022-10-18T08:30:38;102774.09;;;8.56;100.00
64192;BME280;50497;50.720;-2.084;2022-10-18T08:33:03;102789.91;;;8.88;100.00
64192;BME280;50497;50.720;-2.084;2022-10-18T08:35:29;102786.22;;;9.05;100.00
64192;BME280;50497;50.720;-2.084;2022-10-18T08:37:56;102783.59;;;9.00;100.00
64192;BME280;50497;50.720;-2.084;2022-10-18T08:40:22;102794.75;;;9.46;100.00
64192;BME280;50497;50.720;-2.084;2022-10-18T08:43:13;102778.38;;;10.49;100.00
64192;BME280;50497;50.720;-2.084;2022-10-18T08:45:42;102785.38;;;11.17;100.00
64192;BME280;50497;50.720;-2.084;2022-10-18T08:48:22;102779.75;;;11.79;100.00
64192;BME280;50497;50.720;-2.084;2022-10-18T08:50:50;102783.59;;;12.89;100.00
64192;BME280;50497;50.720;-2.084;2022-10-18T08:53:19;102785.16;;;12.62;100.00
64192;BME280;50497;50.720;-2.084;2022-10-18T08:55:51;102766.97;;;13.09;100.00
64192;BME280;50497;50.720;-2.084;2022-10-18T08:58:25;102761.25;;;13.58;100.00
64192;BME280;50497;50.720;-2.084;2022-10-18T09:01:18;102741.16;;;14.31;100.00
64192;BME280;50497;50.720;-2.084;2022-10-18T09:12:04;102714.22;;;15.64;100.00
64192;BME280;50497;50.720;-2.084;2022-10-18T09:15:03;102701.41;;;15.95;100.00
64192;BME280;50497;50.720;-2.084;2022-10-18T09:17:36;102703.41;;;16.35;100.00
64192;BME280;50497;50.720;-2.084;2022-10-18T09:22:55;102689.69;;;16.18;100.00
64192;BME280;50497;50.720;-2.084;2022-10-18T09:25:28;102697.81;;;16.62;100.00
64192;BME280;50497;50.720;-2.084;2022-10-18T09:31:06;102691.47;;;18.05;100.00
64192;BME280;50497;50.720;-2.084;2022-10-18T09:36:22;102688.44;;;18.31;100.00
64192;BME280;50497;50.720;-2.084;2022-10-18T09:38:52;102682.38;;;18.25;100.00
64192;BME280;50497;50.720;-2.084;2022-10-18T09:41:24;102694.03;;;18.08;100.00
64192;BME280;50497;50.720;-2.084;2022-10-18T09:46:41;102690.16;;;17.74;100.00
64192;BME280;50497;50.720;-2.084;2022-10-18T09:49:32;102680.03;;;17.40;100.00
64192;BME280;50497;50.720;-2.084;2022-10-18T09:52:03;102679.50;;;17.11;100.00
64192;BME280;50497;50.720;-2.084;2022-10-18T09:54:41;102691.59;;;17.23;100.00
64192;BME280;50497;50.720;-2.084;2022-10-18T09:57:31;102685.81;;;17.91;100.00
64192;BME280;50497;50.720;-2.084;2022-10-18T10:00:00;102680.50;;;19.16;100.00
64192;BME280;50497;50.720;-2.084;2022-10-18T10:02:27;102681.19;;;19.71;100.00
64192;BME280;50497;50.720;-2.084;2022-10-18T10:04:53;102668.03;;;20.12;100.00
64192;BME280;50497;50.720;-2.084;2022-10-18T10:07:33;102674.22;;;20.62;100.00
64192;BME280;50497;50.720;-2.084;2022-10-18T10:10:11;102677.31;;;20.86;100.00
64192;BME280;50497;50.720;-2.084;2022-10-18T10:12:39;102657.97;;;20.61;100.00
64192;BME280;50497;50.720;-2.084;2022-10-18T10:18:07;102675.06;;;20.79;100.00
64192;BME280;50497;50.720;-2.084;2022-10-18T10:20:47;102669.34;;;20.83;100.00
64192;BME280;50497;50.720;-2.084;2022-10-18T10:23:28;102670.84;;;21.77;100.00
64192;BME280;50497;50.720;-2.084;2022-10-18T10:25:57;102662.34;;;21.96;100.00
64192;BME280;50497;50.720;-2.084;2022-10-18T10:28:33;102672.28;;;21.83;100.00
64192;BME280;50497;50.720;-2.084;2022-10-18T10:31:29;102666.53;;;22.02;100.00
64192;BME280;50497;50.720;-2.084;2022-10-18T10:36:45;102647.25;;;22.99;100.00
64192;BME280;50497;50.720;-2.084;2022-10-18T10:39:13;102655.53;;;22.58;100.00
64192;BME280;50497;50.720;-2.084;2022-10-18T10:41:46;102649.75;;;22.90;100.00
64192;BME280;50497;50.720;-2.084;2022-10-18T10:44:15;102645.22;;;22.21;100.00
64192;BME280;50497;50.720;-2.084;2022-10-18T10:46:41;102630.72;;;22.35;100.00
64192;BME280;50497;50.720;-2.084;2022-10-18T10:49:52;102642.75;;;22.45;100.00
64192;BME280;50497;50.720;-2.084;2022-10-18T10:51:59;102630.41;;;22.40;100.00
64192;BME280;50497;50.720;-2.084;2022-10-18T10:54:27;102634.66;;;21.75;100.00
64192;BME280;50497;50.720;-2.084;2022-10-18T10:57:00;102635.59;;;23.23;100.00
64192;BME280;50497;50.720;-2.084;2022-10-18T10:59:39;102641.31;;;22.93;100.00
64192;BME280;50497;50.720;-2.084;2022-10-18T11:04:45;102636.78;;;23.32;100.00
64192;BME280;50497;50.720;-2.084;2022-10-18T11:07:38;102634.88;;;22.94;100.00
64192;BME280;50497;50.720;-2.084;2022-10-18T11:10:24;102638.50;;;23.46;100.00
64192;BME280;50497;50.720;-2.084;2022-10-18T11:13:01;102643.22;;;23.31;100.00
64192;BME280;50497;50.720;-2.084;2022-10-18T11:15:32;102632.25;;;23.82;100.00
64192;BME280;50497;50.720;-2.084;2022-10-18T11:18:27;102643.97;;;23.71;100.00
64192;BME280;50497;50.720;-2.084;2022-10-18T11:20:57;102640.94;;;24.00;100.00
64192;BME280;50497;50.720;-2.084;2022-10-18T11:23:30;102617.06;;;23.91;100.00
64192;BME280;50497;50.720;-2.084;2022-10-18T11:32:21;102637.34;;;24.48;100.00
64192;BME280;50497;50.720;-2.084;2022-10-18T11:51:41;102623.78;;;24.46;100.00
64192;BME280;50497;50.720;-2.084;2022-10-18T12:05:25;102601.75;;;24.12;100.00
64192;BME280;50497;50.720;-2.084;2022-10-18T12:10:18;102602.44;;;24.03;100.00
64192;BME280;50497;50.720;-2.084;2022-10-18T12:12:49;102588.75;;;23.79;100.00
64192;BME280;50497;50.720;-2.084;2022-10-18T12:15:19;102597.53;;;22.28;100.00
64192;BME280;50497;50.720;-2.084;2022-10-18T12:17:58;102589.13;;;21.19;100.00
64192;BME280;50497;50.720;-2.084;2022-10-18T12:20:32;102588.19;;;21.91;100.00
64192;BME280;50497;50.720;-2.084;2022-10-18T12:25:22;102585.50;;;22.58;100.00
64192;BME280;50497;50.720;-2.084;2022-10-18T12:28:04;102571.00;;;22.70;100.00
64192;BME280;50497;50.720;-2.084;2022-10-18T12:30:42;102573.84;;;22.82;100.00
64192;BME280;50497;50.720;-2.084;2022-10-18T12:33:14;102563.97;;;21.86;100.00
64192;BME280;50497;50.720;-2.084;2022-10-18T12:38:39;102557.34;;;20.61;100.00
64192;BME280;50497;50.720;-2.084;2022-10-18T12:41:15;102554.06;;;20.09;100.00
64192;BME280;50497;50.720;-2.084;2022-10-18T12:43:50;102553.31;;;19.75;100.00
64192;BME280;50497;50.720;-2.084;2022-10-18T12:46:16;102574.44;;;19.21;100.00
64192;BME280;50497;50.720;-2.084;2022-10-18T12:48:42;102579.19;;;19.33;100.00
64192;BME280;50497;50.720;-2.084;2022-10-18T12:51:17;102591.28;;;19.44;100.00
64192;BME280;50497;50.720;-2.084;2022-10-18T12:53:53;102582.84;;;19.32;100.00
64192;BME280;50497;50.720;-2.084;2022-10-18T13:07:38;102561.72;;;19.71;100.00
64192;BME280;50497;50.720;-2.084;2022-10-18T13:19:06;102590.13;;;18.98;100.00
64192;BME280;50497;50.720;-2.084;2022-10-18T13:24:28;102595.88;;;18.92;100.00
64192;BME280;50497;50.720;-2.084;2022-10-18T13:38:26;102589.53;;;18.39;100.00
64192;BME280;50497;50.720;-2.084;2022-10-18T13:41:10;102589.47;;;18.04;100.00
64192;BME280;50497;50.720;-2.084;2022-10-18T13:49:03;102581.06;;;17.72;100.00
64192;BME280;50497;50.720;-2.084;2022-10-18T14:00:38;102591.47;;;17.63;100.00
64192;BME280;50497;50.720;-2.084;2022-10-18T14:06:33;102582.69;;;17.58;100.00
64192;BME280;50497;50.720;-2.084;2022-10-18T14:09:05;102590.16;;;17.52;100.00
64192;BME280;50497;50.720;-2.084;2022-10-18T14:11:38;102573.53;;;17.41;100.00
64192;BME280;50497;50.720;-2.084;2022-10-18T14:19:30;102603.16;;;17.44;100.00
64192;BME280;50497;50.720;-2.084;2022-10-18T14:22:22;102590.78;;;17.20;100.00
64192;BME280;50497;50.720;-2.084;2022-10-18T14:24:54;102588.91;;;17.01;100.00
64192;BME280;50497;50.720;-2.084;2022-10-18T14:27:22;102608.63;;;17.03;100.00
64192;BME280;50497;50.720;-2.084;2022-10-18T14:29:49;102601.63;;;16.99;100.00
64192;BME280;50497;50.720;-2.084;2022-10-18T14:32:31;102590.75;;;17.01;100.00
64192;BME280;50497;50.720;-2.084;2022-10-18T14:34:57;102610.28;;;17.07;100.00
64192;BME280;50497;50.720;-2.084;2022-10-18T14:37:50;102611.28;;;17.05;100.00
64192;BME280;50497;50.720;-2.084;2022-10-18T14:40:38;102585.72;;;17.12;100.00
64192;BME280;50497;50.720;-2.084;2022-10-18T14:43:12;102580.88;;;16.99;100.00
64192;BME280;50497;50.720;-2.084;2022-10-18T14:45:39;102584.91;;;17.10;100.00
64192;BME280;50497;50.720;-2.084;2022-10-18T14:48:16;102590.31;;;17.10;100.00
64192;BME280;50497;50.720;-2.084;2022-10-18T14:50:43;102600.69;;;17.00;100.00
64192;BME280;50497;50.720;-2.084;2022-10-18T14:53:15;102590.69;;;17.02;100.00
64192;BME280;50497;50.720;-2.084;2022-10-18T14:55:41;102599.38;;;16.88;100.00
64192;BME280;50497;50.720;-2.084;2022-10-18T14:58:13;102603.66;;;16.94;100.00
64192;BME280;50497;50.720;-2.084;2022-10-18T15:00:39;102606.75;;;16.85;100.00
64192;BME280;50497;50.720;-2.084;2022-10-18T15:03:09;102592.00;;;16.51;100.00
64192;BME280;50497;50.720;-2.084;2022-10-18T15:05:36;102594.69;;;16.51;100.00
64192;BME280;50497;50.720;-2.084;2022-10-18T15:08:02;102594.56;;;16.54;100.00
64192;BME280;50497;50.720;-2.084;2022-10-18T15:10:31;102593.47;;;16.58;100.00
64192;BME280;50497;50.720;-2.084;2022-10-18T15:12:58;102604.97;;;16.63;100.00
64192;BME280;50497;50.720;-2.084;2022-10-18T15:15:29;102599.22;;;16.50;100.00
64192;BME280;50497;50.720;-2.084;2022-10-18T15:17:56;102618.16;;;16.71;100.00
64192;BME280;50497;50.720;-2.084;2022-10-18T15:20:30;102604.03;;;16.64;100.00